Manville, Rhode Island
Current Conditions -  °F | °C
As of 3:55 AM on Saturday 25 Oct 2014 (Local Time) from KSFZ Reporting Station
Clear Clear  
Wind Chill: 39°   Ceiling: Unl
Heat Index: 43°   Visibility: 10mi
Dew Point: 34°   Wind: 6mph
Humidity: 70%   Direction: 280°W
Pressure: 29.76"   Gusts: NA
Location:  41.97°N, 71.47°W
Report Text: KSFZ 250755Z 28005KT 10SM CLR 06/01 A2976 RMK AO1
Loading
Personal Weather Stations






























Interactive Weather Map
Tropical Storm Tracking
New forecast layout! Learn more

10-Day Weather Forecast

Advertisements
Track Severe Weather on mobile